createdAt,value
2022-12-11T00:04:26.148Z,82.82
2022-12-11T00:09:28.870Z,82.91
2022-12-11T00:14:31.640Z,83.27
2022-12-11T00:19:34.191Z,83.46
2022-12-11T00:24:39.121Z,83.20
2022-12-11T00:29:41.731Z,83.41
2022-12-11T00:34:43.991Z,82.98
2022-12-11T00:39:46.551Z,82.82
2022-12-11T00:44:48.797Z,82.75
2022-12-11T00:49:50.915Z,82.71
2022-12-11T00:54:53.702Z,83.10
2022-12-11T00:59:59.120Z,82.95
2022-12-11T01:05:01.346Z,83.10
2022-12-11T01:10:23.270Z,83.07
2022-12-11T01:15:28.022Z,82.89
2022-12-11T01:20:30.239Z,82.68
2022-12-11T01:25:33.245Z,82.68
2022-12-11T01:30:36.395Z,82.69
2022-12-11T01:35:39.885Z,82.96
2022-12-11T01:40:52.567Z,83.38
2022-12-11T01:45:54.679Z,83.41
2022-12-11T01:51:02.147Z,83.31
2022-12-11T01:56:05.236Z,83.18
2022-12-11T02:01:08.881Z,83.44
2022-12-11T02:06:30.934Z,83.62
2022-12-11T02:12:11.228Z,84.02
2022-12-11T02:17:19.800Z,83.46
2022-12-11T02:22:50.743Z,83.50
2022-12-11T02:28:14.786Z,83.55
2022-12-11T02:33:19.393Z,83.49
2022-12-11T02:38:32.349Z,83.38
2022-12-11T02:43:35.008Z,83.69
2022-12-11T02:48:37.796Z,83.46
2022-12-11T02:53:41.658Z,83.67
2022-12-11T02:58:52.766Z,84.32
2022-12-11T03:03:59.100Z,84.19
2022-12-11T03:09:01.535Z,84.22
2022-12-11T03:14:03.936Z,84.28
2022-12-11T03:19:12.837Z,84.54
2022-12-11T03:24:23.790Z,84.69
2022-12-11T03:29:31.433Z,84.69
2022-12-11T03:34:41.776Z,84.78
2022-12-11T03:39:52.136Z,84.19
2022-12-11T03:44:57.044Z,84.88
2022-12-11T03:49:59.434Z,84.34
2022-12-11T03:55:03.984Z,85.18
2022-12-11T04:00:11.785Z,84.91
2022-12-11T04:05:17.210Z,84.84
2022-12-11T04:10:19.420Z,84.53
2022-12-11T04:15:21.514Z,84.62
2022-12-11T04:20:42.365Z,84.91
2022-12-11T04:25:44.637Z,84.70
2022-12-11T04:30:50.045Z,84.36
2022-12-11T04:35:52.262Z,84.63
2022-12-11T04:41:00.896Z,84.69
2022-12-11T04:46:07.403Z,84.55
2022-12-11T04:51:12.810Z,84.30
2022-12-11T04:56:16.550Z,84.30
2022-12-11T05:01:21.689Z,84.01
2022-12-11T05:06:23.860Z,84.02
2022-12-11T05:11:26.032Z,83.43
2022-12-11T05:16:28.203Z,83.44
2022-12-11T05:21:34.786Z,83.47
2022-12-11T05:26:37.434Z,83.55
2022-12-11T05:31:39.564Z,83.69
2022-12-11T05:36:41.976Z,84.00
2022-12-11T05:41:44.025Z,83.75
2022-12-11T05:46:46.385Z,82.94
2022-12-11T05:51:48.585Z,82.78
2022-12-11T05:56:51.066Z,83.05
2022-12-11T06:01:53.224Z,83.12
2022-12-11T06:06:55.434Z,82.54
2022-12-11T06:11:57.555Z,82.43
2022-12-11T06:16:59.661Z,82.11
2022-12-11T06:22:01.900Z,82.31
2022-12-11T06:27:04.131Z,82.55
2022-12-11T06:32:06.641Z,82.22
2022-12-11T06:37:08.989Z,82.05
2022-12-11T06:42:13.358Z,81.98
2022-12-11T06:47:15.514Z,81.65
2022-12-11T06:52:18.711Z,81.33
2022-12-11T06:57:21.657Z,81.16
2022-12-11T07:02:24.565Z,81.08
2022-12-11T07:07:34.183Z,80.93
2022-12-11T07:12:36.952Z,80.77
2022-12-11T07:17:42.656Z,81.26
2022-12-11T07:22:47.064Z,81.26
2022-12-11T07:27:49.952Z,81.30
2022-12-11T07:32:52.177Z,80.96
2022-12-11T07:37:54.400Z,80.77
2022-12-11T07:42:59.293Z,80.75
2022-12-11T07:48:18.035Z,80.51
2022-12-11T07:53:21.497Z,80.08
2022-12-11T07:58:27.710Z,79.96
2022-12-11T08:03:35.719Z,80.34
2022-12-11T08:08:50.595Z,80.19
2022-12-11T08:13:53.463Z,80.22
2022-12-11T08:18:58.179Z,80.46
2022-12-11T08:24:01.839Z,80.04
2022-12-11T08:29:09.176Z,79.83
2022-12-11T08:34:13.726Z,79.46
2022-12-11T08:39:16.244Z,79.02
2022-12-11T08:44:19.577Z,78.76
2022-12-11T08:49:23.599Z,78.22
2022-12-11T08:54:28.986Z,78.31
2022-12-11T08:59:54.144Z,78.41
2022-12-11T09:04:57.862Z,78.17
2022-12-11T09:10:06.051Z,78.43
2022-12-11T09:15:16.654Z,79.11
2022-12-11T09:20:23.024Z,78.82
2022-12-11T09:25:31.578Z,78.57
2022-12-11T09:30:42.422Z,79.00
2022-12-11T09:36:02.771Z,79.06
2022-12-11T09:42:11.860Z,78.95
2022-12-11T09:47:41.183Z,79.12
2022-12-11T09:52:59.612Z,79.24
2022-12-11T09:58:17.425Z,79.27
2022-12-11T10:03:36.045Z,79.17
2022-12-11T10:08:59.776Z,78.91
2022-12-11T10:14:36.862Z,78.67
2022-12-11T10:20:24.851Z,78.47
2022-12-11T10:26:09.429Z,77.91
2022-12-11T10:31:38.919Z,77.56
2022-12-11T10:36:42.182Z,77.27
2022-12-11T10:41:47.381Z,77.08
2022-12-11T10:47:11.156Z,76.21
2022-12-11T10:52:22.409Z,76.00
2022-12-11T10:57:35.148Z,75.72
2022-12-11T11:02:51.354Z,75.52
2022-12-11T11:08:14.716Z,75.44
2022-12-11T11:13:31.685Z,75.57
2022-12-11T11:18:40.215Z,75.61
2022-12-11T11:23:54.949Z,75.85
2022-12-11T11:28:57.248Z,76.32
2022-12-11T11:34:06.076Z,76.64
2022-12-11T11:39:08.289Z,77.05
2022-12-11T11:44:18.271Z,77.93
2022-12-11T11:49:29.957Z,78.21
2022-12-11T11:54:58.214Z,78.17
2022-12-11T12:00:33.687Z,77.60
2022-12-11T12:05:47.239Z,76.70
2022-12-11T12:11:07.589Z,76.29
2022-12-11T12:16:51.071Z,76.03
2022-12-11T12:21:49.140Z,75.98
2022-12-11T12:27:52.006Z,75.86
2022-12-11T12:33:12.038Z,75.67
2022-12-11T12:38:17.597Z,75.81
2022-12-11T12:44:05.738Z,76.13
2022-12-11T12:49:24.170Z,76.13
2022-12-11T12:54:31.356Z,76.06
2022-12-11T12:59:41.856Z,75.76
2022-12-11T13:04:58.598Z,75.42
2022-12-11T13:10:30.613Z,75.16
2022-12-11T13:15:42.555Z,74.98
2022-12-11T13:20:50.764Z,75.05
2022-12-11T13:26:09.343Z,74.70
2022-12-11T13:31:19.316Z,74.83
2022-12-11T13:36:35.862Z,75.38
2022-12-11T13:41:40.152Z,76.07
2022-12-11T13:46:43.735Z,76.42
2022-12-11T13:51:57.307Z,75.84
2022-12-11T13:57:15.859Z,75.17
2022-12-11T14:02:38.770Z,75.09
2022-12-11T14:07:49.809Z,75.15
2022-12-11T14:13:25.302Z,74.66
2022-12-11T14:18:31.316Z,74.56
2022-12-11T14:23:35.747Z,74.63
2022-12-11T14:28:42.349Z,74.65
2022-12-11T14:34:03.931Z,74.72
2022-12-11T14:39:44.670Z,74.64
2022-12-11T14:45:07.069Z,74.88
2022-12-11T14:50:31.852Z,75.42
2022-12-11T14:55:40.358Z,75.55
2022-12-11T15:01:12.184Z,75.82
2022-12-11T15:06:52.093Z,76.19
2022-12-11T15:12:14.893Z,76.74
2022-12-11T15:17:26.320Z,76.88
2022-12-11T15:22:47.733Z,76.88
2022-12-11T15:28:46.349Z,77.09
2022-12-11T15:34:25.930Z,76.93
2022-12-11T15:39:40.128Z,76.96
2022-12-11T15:44:49.049Z,76.07
2022-12-11T15:50:09.705Z,75.36
2022-12-11T15:55:23.417Z,75.38
2022-12-11T16:00:32.432Z,75.35
2022-12-11T16:05:49.815Z,75.53
2022-12-11T16:10:55.912Z,75.45
2022-12-11T16:16:03.082Z,75.21
2022-12-11T16:21:16.837Z,75.43
2022-12-11T16:26:26.876Z,75.41
2022-12-11T16:31:49.290Z,75.65
2022-12-11T16:36:55.666Z,75.26
2022-12-11T16:41:58.057Z,75.36
2022-12-11T16:47:00.327Z,75.77
2022-12-11T16:52:14.390Z,76.28
2022-12-11T16:57:24.521Z,76.40
2022-12-11T17:02:29.379Z,77.05
2022-12-11T17:07:34.864Z,76.85
2022-12-11T17:12:37.521Z,76.81
2022-12-11T17:17:44.005Z,77.12
2022-12-11T17:22:49.506Z,77.31
2022-12-11T17:28:04.045Z,77.32
2022-12-11T17:33:07.018Z,77.52
2022-12-11T17:38:09.203Z,78.02
2022-12-11T17:43:11.927Z,78.46
2022-12-11T17:48:15.652Z,78.60
2022-12-11T17:53:19.055Z,78.30
2022-12-11T17:58:23.036Z,78.76
2022-12-11T18:03:27.690Z,79.24
2022-12-11T18:08:30.411Z,79.82
2022-12-11T18:13:34.495Z,80.03
2022-12-11T18:18:36.886Z,80.41
2022-12-11T18:23:45.776Z,80.51
2022-12-11T18:28:53.632Z,80.65
2022-12-11T18:33:55.909Z,80.89
2022-12-11T18:38:58.485Z,80.80
2022-12-11T18:44:09.914Z,81.61
2022-12-11T18:49:16.111Z,82.02
2022-12-11T18:54:30.744Z,82.09
2022-12-11T18:59:37.195Z,82.00
2022-12-11T19:04:41.041Z,81.89
2022-12-11T19:09:48.320Z,81.95
2022-12-11T19:14:51.292Z,82.45
2022-12-11T19:19:55.983Z,82.39
2022-12-11T19:25:00.574Z,82.71
2022-12-11T19:30:15.904Z,82.86
2022-12-11T19:35:39.780Z,83.12
2022-12-11T19:41:05.096Z,83.52
2022-12-11T19:46:14.018Z,83.49
2022-12-11T19:51:31.050Z,83.75
2022-12-11T19:56:37.805Z,83.60
2022-12-11T20:01:40.236Z,83.42
2022-12-11T20:06:46.133Z,83.83
2022-12-11T20:11:48.699Z,83.43
2022-12-11T20:17:11.084Z,83.52
2022-12-11T20:22:15.336Z,83.49
2022-12-11T20:27:19.903Z,82.97
2022-12-11T20:32:30.304Z,83.05
2022-12-11T20:37:36.422Z,83.01
2022-12-11T20:42:40.331Z,82.77
2022-12-11T20:47:42.471Z,83.35
2022-12-11T20:52:44.600Z,83.48
2022-12-11T20:57:46.954Z,83.22
2022-12-11T21:02:50.148Z,83.00
2022-12-11T21:07:55.648Z,83.26
2022-12-11T21:12:59.366Z,83.56
2022-12-11T21:18:08.366Z,83.77
2022-12-11T21:23:19.004Z,83.45
2022-12-11T21:28:35.403Z,83.45
2022-12-11T21:33:38.175Z,83.47
2022-12-11T21:38:43.270Z,83.74
2022-12-11T21:45:06.960Z,84.27
2022-12-11T21:49:16.380Z,84.54
2022-12-11T21:54:22.939Z,84.85
2022-12-11T21:59:30.708Z,84.84
2022-12-11T22:04:38.896Z,85.18
2022-12-11T22:10:00.094Z,85.56
2022-12-11T22:15:14.677Z,85.53
2022-12-11T22:20:21.057Z,85.32
2022-12-11T22:25:23.446Z,85.28
2022-12-11T22:30:28.594Z,85.53
2022-12-11T22:35:30.802Z,85.59
2022-12-11T22:40:36.153Z,85.40
2022-12-11T22:45:39.838Z,85.13
2022-12-11T22:50:43.390Z,85.21
2022-12-11T22:55:45.392Z,85.48
2022-12-11T23:00:52.364Z,85.25
2022-12-11T23:05:55.539Z,85.26
2022-12-11T23:11:00.341Z,84.95
2022-12-11T23:16:06.688Z,84.90
2022-12-11T23:21:11.362Z,84.66
2022-12-11T23:26:21.359Z,84.62
2022-12-11T23:31:27.219Z,84.68
2022-12-11T23:36:32.738Z,85.28
2022-12-11T23:41:37.802Z,84.92
2022-12-11T23:46:42.224Z,85.19
2022-12-11T23:51:47.293Z,85.71
2022-12-11T23:56:50.819Z,85.23
